createdAt,value
2022-08-17T00:01:27.924Z,75.91
2022-08-17T00:03:55.808Z,75.94
2022-08-17T00:06:25.967Z,76.00
2022-08-17T00:09:01.167Z,75.88
2022-08-17T00:11:31.240Z,76.07
2022-08-17T00:14:05.219Z,75.82
2022-08-17T00:16:55.611Z,76.37
2022-08-17T00:19:25.756Z,76.58
2022-08-17T00:22:32.942Z,76.20
2022-08-17T00:24:43.025Z,76.34
2022-08-17T00:27:09.778Z,77.06
2022-08-17T00:29:36.223Z,77.55
2022-08-17T00:33:12.527Z,78.06
2022-08-17T00:34:50.105Z,77.43
2022-08-17T00:37:17.008Z,77.92
2022-08-17T00:39:43.765Z,77.17
2022-08-17T00:42:19.159Z,77.00
2022-08-17T00:44:46.085Z,77.30
2022-08-17T00:47:12.518Z,77.45
2022-08-17T00:49:39.459Z,77.85
2022-08-17T00:52:15.361Z,78.59
2022-08-17T00:54:45.461Z,78.68
2022-08-17T00:57:38.281Z,77.87
2022-08-17T01:00:19.881Z,77.53
2022-08-17T01:02:47.724Z,77.40
2022-08-17T01:05:20.993Z,77.80
2022-08-17T01:07:50.718Z,77.65
2022-08-17T01:11:00.423Z,77.90
2022-08-17T01:13:10.639Z,77.97
2022-08-17T01:15:40.676Z,77.92
2022-08-17T01:18:10.304Z,78.09
2022-08-17T01:20:48.140Z,78.23
2022-08-17T01:23:18.536Z,78.00
2022-08-17T01:25:52.708Z,78.32
2022-08-17T01:28:53.227Z,78.86
2022-08-17T01:31:08.644Z,79.22
2022-08-17T01:33:35.938Z,78.70
2022-08-17T01:36:04.411Z,78.46
2022-08-17T01:38:32.248Z,78.02
2022-08-17T01:41:03.515Z,78.08
2022-08-17T01:43:35.025Z,78.10
2022-08-17T01:46:03.704Z,78.69
2022-08-17T01:48:33.219Z,78.85
2022-08-17T01:51:01.000Z,78.85
2022-08-17T01:53:34.725Z,78.16
2022-08-17T01:56:08.358Z,78.15
2022-08-17T01:58:35.685Z,78.22
2022-08-17T02:01:03.946Z,78.58
2022-08-17T02:03:30.566Z,78.61
2022-08-17T02:05:58.047Z,78.92
2022-08-17T02:08:37.324Z,79.10
2022-08-17T02:11:12.097Z,80.35
2022-08-17T02:13:39.540Z,81.43
2022-08-17T02:16:06.254Z,80.90
2022-08-17T02:18:33.448Z,79.98
2022-08-17T02:21:00.460Z,80.30
2022-08-17T02:23:30.273Z,80.24
2022-08-17T02:26:00.323Z,80.43
2022-08-17T02:28:28.674Z,80.73
2022-08-17T02:31:02.597Z,79.76
2022-08-17T02:33:43.053Z,79.23
2022-08-17T02:36:11.952Z,79.88
2022-08-17T02:38:39.856Z,80.30
2022-08-17T02:41:06.752Z,80.60
2022-08-17T02:43:33.577Z,79.96
2022-08-17T02:46:00.078Z,79.94
2022-08-17T02:48:28.038Z,79.50
2022-08-17T02:50:58.319Z,79.44
2022-08-17T02:53:25.706Z,79.33
2022-08-17T02:55:52.579Z,79.66
2022-08-17T02:58:34.453Z,79.24
2022-08-17T03:01:04.702Z,79.39
2022-08-17T03:03:31.636Z,79.22
2022-08-17T03:05:58.092Z,79.62
2022-08-17T03:08:25.349Z,79.59
2022-08-17T03:10:52.396Z,79.78
2022-08-17T03:13:19.289Z,80.03
2022-08-17T03:15:46.796Z,80.40
2022-08-17T03:18:24.932Z,80.55
2022-08-17T03:20:57.950Z,81.36
2022-08-17T03:23:25.664Z,80.89
2022-08-17T03:25:53.902Z,80.66
2022-08-17T03:28:21.961Z,80.69
2022-08-17T03:30:49.276Z,80.71
2022-08-17T03:33:16.125Z,80.49
2022-08-17T03:35:43.892Z,79.84
2022-08-17T03:38:11.798Z,79.55
2022-08-17T03:40:57.221Z,79.73
2022-08-17T03:43:26.653Z,79.22
2022-08-17T03:46:28.486Z,79.80
2022-08-17T03:49:16.695Z,81.29
2022-08-17T03:52:01.588Z,80.40
2022-08-17T03:54:47.279Z,80.01
2022-08-17T03:57:14.024Z,79.14
2022-08-17T03:59:40.897Z,79.13
2022-08-17T04:02:19.521Z,78.85
2022-08-17T04:04:46.501Z,78.70
2022-08-17T04:07:13.289Z,78.55
2022-08-17T04:09:40.051Z,78.98
2022-08-17T04:12:06.610Z,79.29
2022-08-17T04:14:36.706Z,79.28
2022-08-17T04:17:18.808Z,79.34
2022-08-17T04:19:47.231Z,78.91
2022-08-17T04:22:30.291Z,78.30
2022-08-17T04:25:01.039Z,78.53
2022-08-17T04:27:27.420Z,78.04
2022-08-17T04:29:55.794Z,77.50
2022-08-17T04:32:25.165Z,78.17
2022-08-17T04:35:10.026Z,78.48
2022-08-17T04:37:36.818Z,78.21
2022-08-17T04:40:22.832Z,77.53
2022-08-17T04:43:07.815Z,77.67
2022-08-17T04:45:38.825Z,77.09
2022-08-17T04:48:05.832Z,77.44
2022-08-17T04:50:35.143Z,77.01
2022-08-17T04:53:02.139Z,76.78
2022-08-17T04:55:28.941Z,76.76
2022-08-17T04:57:55.999Z,76.47
2022-08-17T05:00:25.544Z,76.69
2022-08-17T05:02:55.256Z,76.88
2022-08-17T05:05:27.209Z,76.77
2022-08-17T05:07:57.039Z,76.79
2022-08-17T05:10:29.807Z,76.91
2022-08-17T05:13:13.233Z,76.86
2022-08-17T05:15:44.842Z,77.05
2022-08-17T05:18:13.147Z,76.67
2022-08-17T05:20:40.626Z,76.96
2022-08-17T05:23:10.649Z,76.59
2022-08-17T05:25:45.688Z,77.28
2022-08-17T05:28:16.114Z,77.29
2022-08-17T05:30:43.863Z,77.02
2022-08-17T05:33:34.887Z,77.25
2022-08-17T05:36:03.148Z,77.08
2022-08-17T05:38:30.668Z,76.03
2022-08-17T05:40:59.262Z,75.67
2022-08-17T05:43:31.754Z,75.38
2022-08-17T05:46:10.730Z,75.54
2022-08-17T05:48:40.509Z,74.40
2022-08-17T05:51:27.777Z,73.81
2022-08-17T05:54:06.052Z,72.89
2022-08-17T05:57:00.489Z,72.35
2022-08-17T05:59:32.783Z,73.01
2022-08-17T06:02:10.131Z,69.11
2022-08-17T06:04:57.958Z,66.96
2022-08-17T06:07:42.485Z,59.29
2022-08-17T06:10:38.725Z,56.48
2022-08-17T06:13:16.500Z,51.34
2022-08-17T06:16:34.201Z,49.95
2022-08-17T06:19:39.428Z,47.19
2022-08-17T06:22:10.141Z,42.66
2022-08-17T06:24:48.341Z,40.20
2022-08-17T06:27:38.953Z,38.31
2022-08-17T06:30:13.299Z,36.64
2022-08-17T06:32:44.104Z,35.20
2022-08-17T06:35:14.220Z,33.88
2022-08-17T06:37:56.288Z,32.62
2022-08-17T06:40:51.997Z,31.58
2022-08-17T06:43:24.432Z,33.73
2022-08-17T06:45:59.279Z,33.80
2022-08-17T06:48:48.308Z,35.57
2022-08-17T06:51:23.852Z,36.52
2022-08-17T06:53:59.617Z,36.90
2022-08-17T06:56:53.511Z,35.35
2022-08-17T06:59:47.173Z,35.51
2022-08-17T07:02:29.327Z,36.87
2022-08-17T07:05:15.480Z,33.63
2022-08-17T07:08:15.263Z,33.21
2022-08-17T07:10:47.961Z,32.29
2022-08-17T07:13:29.696Z,28.97
2022-08-17T07:16:13.071Z,30.02
2022-08-17T07:18:39.994Z,33.80
2022-08-17T07:21:19.205Z,31.96
2022-08-17T07:24:03.877Z,29.18
2022-08-17T07:26:30.316Z,29.40
2022-08-17T07:28:57.198Z,27.23
2022-08-17T07:31:26.801Z,26.29
2022-08-17T07:34:19.383Z,26.26
2022-08-17T07:36:45.796Z,26.03
2022-08-17T07:39:12.245Z,24.71
2022-08-17T07:41:57.646Z,25.55
2022-08-17T07:44:27.109Z,25.01
2022-08-17T07:47:13.327Z,25.25
2022-08-17T07:49:44.540Z,27.41
2022-08-17T07:52:51.828Z,26.38
2022-08-17T07:55:33.279Z,24.67
2022-08-17T07:58:00.054Z,25.75
2022-08-17T08:00:32.653Z,26.07
2022-08-17T08:03:17.709Z,27.34
2022-08-17T08:05:58.032Z,26.92
2022-08-17T08:08:26.249Z,28.14
2022-08-17T08:11:12.028Z,27.49
2022-08-17T08:13:42.542Z,29.76
2022-08-17T08:16:29.608Z,30.62
2022-08-17T08:19:02.624Z,31.77
2022-08-17T08:22:06.489Z,31.69
2022-08-17T08:25:28.874Z,32.08
2022-08-17T08:28:17.089Z,32.21
2022-08-17T08:30:49.495Z,30.22
2022-08-17T08:33:37.968Z,29.96
2022-08-17T08:37:15.892Z,32.06
2022-08-17T08:39:30.342Z,29.42
2022-08-17T08:42:07.582Z,30.67
2022-08-17T08:45:07.829Z,30.51
2022-08-17T08:47:53.881Z,27.99
2022-08-17T08:50:43.173Z,26.26
2022-08-17T08:53:25.141Z,23.66
2022-08-17T08:56:11.827Z,21.71
2022-08-17T08:58:42.458Z,23.89
2022-08-17T09:01:24.569Z,23.32
2022-08-17T09:04:23.184Z,23.72
2022-08-17T09:07:12.592Z,26.71
2022-08-17T09:09:46.369Z,25.74
2022-08-17T09:12:29.761Z,24.60
2022-08-17T09:15:13.792Z,22.82
2022-08-17T09:18:03.671Z,22.82
2022-08-17T09:20:48.097Z,23.94
2022-08-17T09:23:42.069Z,24.39
2022-08-17T09:26:23.916Z,22.55
2022-08-17T09:28:52.898Z,21.00
2022-08-17T09:31:29.959Z,22.16
2022-08-17T09:34:02.653Z,27.66
2022-08-17T09:36:40.825Z,28.19
2022-08-17T09:39:15.668Z,26.56
2022-08-17T09:42:19.519Z,25.42
2022-08-17T09:45:02.814Z,27.51
2022-08-17T09:47:38.337Z,26.05
2022-08-17T09:50:15.882Z,26.68
2022-08-17T09:52:43.372Z,28.16
2022-08-17T09:55:09.803Z,27.42
2022-08-17T09:58:02.409Z,29.67
2022-08-17T10:00:35.704Z,32.74
2022-08-17T10:03:10.419Z,31.56
2022-08-17T10:05:46.260Z,28.75
2022-08-17T10:08:21.826Z,29.63
2022-08-17T10:11:05.577Z,28.66
2022-08-17T10:13:40.408Z,28.03
2022-08-17T10:16:52.023Z,27.73
2022-08-17T10:19:48.745Z,30.46
2022-08-17T10:22:56.499Z,29.62
2022-08-17T10:25:54.667Z,30.32
2022-08-17T10:28:29.440Z,29.04
2022-08-17T10:31:30.996Z,25.57
2022-08-17T10:34:34.175Z,26.83
2022-08-17T10:37:44.534Z,25.65
2022-08-17T10:40:24.491Z,25.04
2022-08-17T10:43:05.125Z,24.50
2022-08-17T10:46:09.477Z,24.35
2022-08-17T10:49:15.255Z,25.04
2022-08-17T10:51:41.898Z,24.51
2022-08-17T10:54:35.004Z,24.85
2022-08-17T10:57:01.452Z,27.35
2022-08-17T10:59:50.716Z,27.20
2022-08-17T11:02:28.413Z,27.04
2022-08-17T11:05:00.885Z,26.44
2022-08-17T11:08:08.002Z,24.45
2022-08-17T11:10:51.919Z,23.90
2022-08-17T11:13:44.870Z,23.69
2022-08-17T11:16:29.975Z,24.47
2022-08-17T11:19:13.657Z,23.63
2022-08-17T11:21:50.346Z,21.98
2022-08-17T11:24:20.868Z,22.20
2022-08-17T11:27:20.516Z,22.86
2022-08-17T11:29:59.521Z,25.51
2022-08-17T11:32:47.084Z,26.40
2022-08-17T11:35:21.316Z,25.47
2022-08-17T11:37:59.213Z,23.59
2022-08-17T11:40:49.005Z,23.73
2022-08-17T11:43:28.984Z,23.54
2022-08-17T11:46:13.282Z,24.48
2022-08-17T11:49:08.961Z,22.92
2022-08-17T11:52:01.869Z,21.22
2022-08-17T11:54:34.951Z,21.54
2022-08-17T11:57:27.165Z,23.86
2022-08-17T11:59:57.706Z,21.76
2022-08-17T12:02:32.540Z,23.57
2022-08-17T12:05:15.425Z,22.77
2022-08-17T12:08:04.613Z,20.11
2022-08-17T12:10:36.742Z,20.58
2022-08-17T12:13:13.461Z,25.00
2022-08-17T12:15:50.411Z,25.61
2022-08-17T12:18:21.273Z,24.72
2022-08-17T12:21:04.303Z,26.39
2022-08-17T12:23:52.290Z,23.87
2022-08-17T12:26:32.746Z,24.06
2022-08-17T12:29:04.027Z,25.16
2022-08-17T12:31:43.627Z,24.72
2022-08-17T12:34:21.689Z,25.35
2022-08-17T12:36:51.665Z,28.76
2022-08-17T12:39:21.880Z,28.85
2022-08-17T12:41:52.693Z,31.00
2022-08-17T12:44:28.704Z,31.97
2022-08-17T12:47:19.425Z,32.15
2022-08-17T12:49:51.312Z,32.46
2022-08-17T12:52:24.943Z,32.01
2022-08-17T12:54:59.536Z,32.91
2022-08-17T12:57:34.908Z,32.59
2022-08-17T13:00:30.363Z,33.13
2022-08-17T13:03:13.505Z,33.88
2022-08-17T13:05:43.516Z,32.44
2022-08-17T13:08:20.313Z,31.76
2022-08-17T13:11:05.072Z,32.66
2022-08-17T13:13:37.479Z,32.13
2022-08-17T13:16:09.421Z,32.32
2022-08-17T13:18:50.638Z,32.82
2022-08-17T13:21:26.970Z,34.30
2022-08-17T13:24:10.834Z,33.25
2022-08-17T13:26:42.027Z,31.97
2022-08-17T13:29:19.783Z,32.72
2022-08-17T13:31:52.816Z,32.16
2022-08-17T13:34:27.184Z,31.83
2022-08-17T13:37:32.730Z,32.74
2022-08-17T13:40:22.184Z,32.87
2022-08-17T13:42:52.830Z,33.11
2022-08-17T13:45:35.624Z,33.60
2022-08-17T13:48:12.537Z,33.67
2022-08-17T13:51:00.030Z,34.04
2022-08-17T13:53:33.122Z,33.34
2022-08-17T13:56:02.804Z,33.90
2022-08-17T13:58:32.963Z,33.00
2022-08-17T14:01:32.138Z,31.60
2022-08-17T14:04:00.456Z,31.52
2022-08-17T14:06:52.344Z,31.38
2022-08-17T14:09:20.426Z,31.74
2022-08-17T14:11:48.617Z,32.32
2022-08-17T14:14:16.443Z,31.78
2022-08-17T14:16:43.004Z,32.35
2022-08-17T14:19:14.600Z,32.88
2022-08-17T14:21:43.944Z,32.92
2022-08-17T14:24:30.127Z,32.79
2022-08-17T14:26:57.773Z,32.72
2022-08-17T14:29:27.986Z,31.76
2022-08-17T14:31:56.860Z,32.24
2022-08-17T14:34:24.586Z,31.81
2022-08-17T14:36:52.105Z,32.06
2022-08-17T14:39:20.245Z,32.24
2022-08-17T14:41:47.444Z,32.01
2022-08-17T14:44:16.181Z,31.79
2022-08-17T14:46:45.158Z,32.07
2022-08-17T14:49:13.191Z,31.45
2022-08-17T14:51:43.895Z,32.05
2022-08-17T14:54:11.971Z,31.99
2022-08-17T14:57:22.819Z,31.54
2022-08-17T14:59:45.773Z,32.31
2022-08-17T15:02:13.086Z,31.87
2022-08-17T15:04:44.873Z,31.92
2022-08-17T15:07:12.297Z,31.67
2022-08-17T15:09:38.925Z,31.30
2022-08-17T15:12:06.573Z,31.42
2022-08-17T15:14:35.642Z,32.70
2022-08-17T15:17:03.676Z,31.98
2022-08-17T15:19:30.701Z,31.67
2022-08-17T15:21:57.155Z,31.87
2022-08-17T15:24:24.075Z,32.66
2022-08-17T15:26:51.304Z,32.43
2022-08-17T15:29:17.665Z,32.86
2022-08-17T15:31:44.521Z,32.06
2022-08-17T15:34:11.435Z,32.60
2022-08-17T15:36:37.883Z,32.65
2022-08-17T15:39:07.681Z,32.95
2022-08-17T15:41:34.681Z,32.21
2022-08-17T15:44:01.063Z,32.31
2022-08-17T15:46:27.490Z,31.99
2022-08-17T15:48:59.247Z,32.54
2022-08-17T15:51:31.085Z,31.83
2022-08-17T15:54:04.262Z,31.81
2022-08-17T15:56:43.992Z,31.49
2022-08-17T15:59:10.348Z,31.87
2022-08-17T16:03:01.234Z,32.33
2022-08-17T16:04:29.722Z,32.44
2022-08-17T16:06:57.273Z,32.61
2022-08-17T16:09:23.664Z,32.79
2022-08-17T16:11:52.150Z,32.45
2022-08-17T16:14:23.201Z,32.73
2022-08-17T16:16:50.729Z,32.40
2022-08-17T16:19:17.136Z,32.70
2022-08-17T16:21:43.576Z,32.31
2022-08-17T16:24:13.717Z,32.17
2022-08-17T16:26:42.133Z,32.22
2022-08-17T16:29:08.640Z,32.45
2022-08-17T16:31:37.954Z,32.40
2022-08-17T16:34:16.813Z,32.59
2022-08-17T16:36:51.836Z,32.63
2022-08-17T16:39:27.590Z,32.72
2022-08-17T16:41:56.347Z,32.56
2022-08-17T16:44:22.950Z,32.77
2022-08-17T16:46:50.105Z,32.83
2022-08-17T16:49:36.025Z,33.22
2022-08-17T16:52:10.432Z,33.44
2022-08-17T16:54:39.323Z,33.64
2022-08-17T16:57:05.762Z,34.29
2022-08-17T16:59:41.893Z,34.22
2022-08-17T17:02:15.435Z,34.24
2022-08-17T17:04:57.872Z,34.46
2022-08-17T17:07:46.069Z,35.31
2022-08-17T17:10:15.315Z,35.37
2022-08-17T17:13:03.651Z,34.76
2022-08-17T17:15:42.164Z,35.57
2022-08-17T17:18:12.618Z,35.88
2022-08-17T17:20:54.543Z,35.77
2022-08-17T17:23:30.095Z,35.87
2022-08-17T17:26:10.871Z,36.67
2022-08-17T17:28:42.959Z,36.42
2022-08-17T17:31:19.427Z,36.76
2022-08-17T17:33:52.967Z,37.10
2022-08-17T17:36:48.209Z,37.44
2022-08-17T17:39:26.189Z,37.55
2022-08-17T17:41:59.881Z,37.66
2022-08-17T17:44:32.550Z,38.11
2022-08-17T17:47:01.167Z,37.84
2022-08-17T17:49:35.709Z,37.74
2022-08-17T17:52:18.393Z,38.39
2022-08-17T17:55:10.730Z,38.98
2022-08-17T17:57:54.756Z,38.98
2022-08-17T18:00:42.073Z,39.91
2022-08-17T18:03:19.543Z,40.31
2022-08-17T18:06:05.395Z,40.39
2022-08-17T18:08:37.366Z,40.89
2022-08-17T18:11:41.811Z,41.88
2022-08-17T18:14:19.820Z,42.23
2022-08-17T18:16:54.103Z,43.17
2022-08-17T18:19:21.280Z,43.69
2022-08-17T18:21:54.622Z,44.33
2022-08-17T18:24:37.982Z,44.62
2022-08-17T18:27:20.221Z,45.00
2022-08-17T18:29:48.460Z,45.76
2022-08-17T18:32:27.123Z,46.05
2022-08-17T18:35:11.118Z,46.39
2022-08-17T18:37:48.754Z,46.84
2022-08-17T18:40:19.390Z,47.29
2022-08-17T18:43:02.777Z,48.12
2022-08-17T18:45:47.159Z,48.94
2022-08-17T18:48:49.383Z,49.05
2022-08-17T18:51:40.468Z,49.22
2022-08-17T18:54:14.025Z,49.80
2022-08-17T18:56:52.857Z,49.95
2022-08-17T18:59:22.520Z,50.55
2022-08-17T19:02:22.122Z,50.34
2022-08-17T19:05:03.620Z,50.59
2022-08-17T19:07:32.014Z,50.86
2022-08-17T19:10:06.337Z,50.71
2022-08-17T19:12:49.876Z,51.23
2022-08-17T19:15:25.067Z,50.13
2022-08-17T19:18:00.087Z,49.95
2022-08-17T19:20:38.170Z,49.67
2022-08-17T19:23:17.755Z,49.46
2022-08-17T19:25:52.683Z,48.97
2022-08-17T19:28:36.740Z,49.19
2022-08-17T19:31:23.293Z,49.07
2022-08-17T19:33:50.364Z,48.78
2022-08-17T19:36:21.357Z,48.56
2022-08-17T19:39:02.984Z,48.79
2022-08-17T19:41:54.755Z,49.56
2022-08-17T19:44:38.003Z,49.37
2022-08-17T19:47:43.777Z,49.81
2022-08-17T19:50:19.304Z,50.29
2022-08-17T19:53:03.617Z,50.13
2022-08-17T19:55:51.375Z,50.72
2022-08-17T19:59:07.529Z,51.14
2022-08-17T20:01:54.488Z,50.88
2022-08-17T20:04:32.638Z,50.34
2022-08-17T20:07:23.927Z,50.80
2022-08-17T20:10:02.545Z,50.53
2022-08-17T20:12:36.615Z,50.33
2022-08-17T20:15:13.554Z,50.75
2022-08-17T20:17:46.143Z,51.49
2022-08-17T20:20:19.957Z,51.64
2022-08-17T20:22:57.239Z,51.57
2022-08-17T20:25:46.309Z,51.49
2022-08-17T20:28:19.604Z,51.78
2022-08-17T20:30:50.643Z,51.42
2022-08-17T20:33:36.769Z,52.20
2022-08-17T20:36:26.217Z,52.14
2022-08-17T20:38:56.637Z,52.18
2022-08-17T20:41:26.125Z,51.53
2022-08-17T20:43:55.219Z,52.07
2022-08-17T20:46:37.701Z,51.65
2022-08-17T20:49:22.341Z,51.48
2022-08-17T20:52:00.722Z,51.07
2022-08-17T20:54:46.261Z,51.09
2022-08-17T20:57:31.653Z,49.54
2022-08-17T21:00:14.629Z,50.99
2022-08-17T21:02:46.725Z,55.34
2022-08-17T21:05:37.489Z,59.34
2022-08-17T21:08:24.971Z,62.74
2022-08-17T21:10:53.541Z,65.79
2022-08-17T21:13:33.338Z,69.53
2022-08-17T21:16:24.631Z,71.10
2022-08-17T21:19:17.634Z,74.71
2022-08-17T21:22:04.143Z,76.46
2022-08-17T21:24:52.443Z,79.35
2022-08-17T21:27:33.884Z,78.54
2022-08-17T21:30:10.121Z,80.27
2022-08-17T21:32:42.117Z,80.93
2022-08-17T21:35:12.523Z,81.75
2022-08-17T21:37:42.859Z,82.46
2022-08-17T21:40:18.826Z,82.99
2022-08-17T21:42:48.669Z,83.83
2022-08-17T21:45:30.698Z,83.10
2022-08-17T21:48:06.937Z,81.51
2022-08-17T21:50:34.695Z,82.14
2022-08-17T21:53:03.687Z,83.05
2022-08-17T21:55:34.193Z,82.67
2022-08-17T21:58:14.759Z,83.69
2022-08-17T22:00:44.952Z,83.80
2022-08-17T22:03:25.821Z,84.83
2022-08-17T22:05:52.967Z,86.32
2022-08-17T22:08:23.580Z,85.59
2022-08-17T22:10:51.649Z,86.09
2022-08-17T22:13:19.859Z,86.04
2022-08-17T22:16:27.722Z,86.74
2022-08-17T22:18:58.375Z,86.48
2022-08-17T22:21:25.245Z,86.27
2022-08-17T22:24:18.187Z,86.83
2022-08-17T22:27:07.521Z,87.31
2022-08-17T22:29:53.265Z,87.50
2022-08-17T22:32:38.775Z,87.45
2022-08-17T22:35:25.501Z,87.71
2022-08-17T22:37:52.192Z,87.95
2022-08-17T22:40:33.023Z,88.02
2022-08-17T22:43:03.267Z,87.63
2022-08-17T22:45:31.020Z,87.47
2022-08-17T22:48:00.598Z,86.96
2022-08-17T22:50:32.901Z,86.83
2022-08-17T22:53:21.533Z,87.17
2022-08-17T22:56:13.983Z,86.55
2022-08-17T22:59:11.454Z,85.79
2022-08-17T23:01:39.396Z,86.18
2022-08-17T23:04:12.980Z,85.93
2022-08-17T23:06:42.243Z,85.25
2022-08-17T23:09:08.953Z,86.01
2022-08-17T23:11:48.771Z,86.24
2022-08-17T23:14:20.026Z,85.92
2022-08-17T23:16:48.600Z,86.38
2022-08-17T23:19:21.053Z,86.14
2022-08-17T23:21:50.907Z,86.23
2022-08-17T23:24:22.504Z,86.00
2022-08-17T23:26:49.007Z,86.76
2022-08-17T23:29:16.500Z,85.83
2022-08-17T23:31:43.528Z,86.15
2022-08-17T23:34:12.949Z,86.48
2022-08-17T23:36:39.407Z,86.61
2022-08-17T23:39:07.412Z,86.00
2022-08-17T23:41:38.505Z,86.11
2022-08-17T23:44:06.294Z,86.36
2022-08-17T23:46:32.994Z,86.38
2022-08-17T23:48:59.443Z,86.74
2022-08-17T23:51:31.203Z,86.46
2022-08-17T23:54:08.204Z,86.21
2022-08-17T23:56:40.566Z,86.42
2022-08-17T23:59:06.915Z,86.19
